sensor_id;sensor_type;location;lat;lon;timestamp;pressure;altitude;pressure_sealevel;temperature;humidity
7990;BME280;4040;42.848;23.034;2023-03-23T00:01:01;94866.13;;;4.87;100.00
7990;BME280;4040;42.848;23.034;2023-03-23T00:06:50;94879.59;;;4.65;100.00
7990;BME280;4040;42.848;23.034;2023-03-23T00:12:38;94863.47;;;4.58;100.00
7990;BME280;4040;42.848;23.034;2023-03-23T00:18:30;94864.00;;;4.67;100.00
7990;BME280;4040;42.848;23.034;2023-03-23T00:24:23;94870.47;;;4.69;100.00
7990;BME280;4040;42.848;23.034;2023-03-23T00:30:12;94772.28;;;4.16;100.00
7990;BME280;4040;42.848;23.034;2023-03-23T00:36:02;94866.91;;;4.88;100.00
7990;BME280;4040;42.848;23.034;2023-03-23T00:41:52;94867.63;;;4.84;100.00
7990;BME280;4040;42.848;23.034;2023-03-23T00:47:41;94802.91;;;4.29;100.00
7990;BME280;4040;42.848;23.034;2023-03-23T00:53:35;94851.50;;;4.74;100.00
7990;BME280;4040;42.848;23.034;2023-03-23T00:59:23;94872.75;;;4.96;100.00
7990;BME280;4040;42.848;23.034;2023-03-23T01:05:12;94861.63;;;4.94;100.00
7990;BME280;4040;42.848;23.034;2023-03-23T01:11:06;94878.19;;;5.07;100.00
7990;BME280;4040;42.848;23.034;2023-03-23T01:16:55;94877.66;;;4.94;100.00
7990;BME280;4040;42.848;23.034;2023-03-23T01:22:44;94877.00;;;5.04;100.00
7990;BME280;4040;42.848;23.034;2023-03-23T01:28:34;94875.91;;;5.09;100.00
7990;BME280;4040;42.848;23.034;2023-03-23T01:34:23;94880.59;;;4.86;100.00
7990;BME280;4040;42.848;23.034;2023-03-23T01:40:12;94874.97;;;4.62;100.00
7990;BME280;4040;42.848;23.034;2023-03-23T01:46:02;94870.41;;;4.62;100.00
7990;BME280;4040;42.848;23.034;2023-03-23T01:51:53;94884.06;;;4.90;100.00
7990;BME280;4040;42.848;23.034;2023-03-23T01:57:45;94882.28;;;4.97;100.00
7990;BME280;4040;42.848;23.034;2023-03-23T02:03:36;94876.84;;;4.90;100.00
7990;BME280;4040;42.848;23.034;2023-03-23T02:09:26;94885.69;;;4.65;100.00
7990;BME280;4040;42.848;23.034;2023-03-23T02:15:15;94888.63;;;4.57;100.00
7990;BME280;4040;42.848;23.034;2023-03-23T02:28:04;94891.91;;;4.21;100.00
7990;BME280;4040;42.848;23.034;2023-03-23T02:33:59;94896.84;;;3.96;100.00
7990;BME280;4040;42.848;23.034;2023-03-23T02:39:51;94891.00;;;3.87;100.00
7990;BME280;4040;42.848;23.034;2023-03-23T02:45:44;94892.19;;;3.90;100.00
7990;BME280;4040;42.848;23.034;2023-03-23T02:51:36;94904.34;;;3.87;100.00
7990;BME280;4040;42.848;23.034;2023-03-23T02:57:27;94913.97;;;3.73;100.00
7990;BME280;4040;42.848;23.034;2023-03-23T03:03:18;94905.00;;;3.81;100.00
7990;BME280;4040;42.848;23.034;2023-03-23T03:09:33;94899.75;;;3.88;100.00
7990;BME280;4040;42.848;23.034;2023-03-23T03:15:30;94916.25;;;3.71;100.00
7990;BME280;4040;42.848;23.034;2023-03-23T03:21:23;94904.88;;;3.74;100.00
7990;BME280;4040;42.848;23.034;2023-03-23T03:27:26;94908.97;;;3.49;100.00
7990;BME280;4040;42.848;23.034;2023-03-23T03:33:16;94926.81;;;3.26;100.00
7990;BME280;4040;42.848;23.034;2023-03-23T03:39:06;94918.56;;;3.31;100.00
7990;BME280;4040;42.848;23.034;2023-03-23T03:44:57;94920.91;;;3.36;100.00
7990;BME280;4040;42.848;23.034;2023-03-23T03:50:46;94920.19;;;3.39;100.00
7990;BME280;4040;42.848;23.034;2023-03-23T03:56:35;94919.63;;;3.49;100.00
7990;BME280;4040;42.848;23.034;2023-03-23T04:02:28;94922.34;;;3.30;100.00
7990;BME280;4040;42.848;23.034;2023-03-23T04:12:39;94925.75;;;3.11;100.00
7990;BME280;4040;42.848;23.034;2023-03-23T04:18:30;94941.94;;;3.41;100.00
7990;BME280;4040;42.848;23.034;2023-03-23T04:24:20;94939.53;;;3.55;100.00
7990;BME280;4040;42.848;23.034;2023-03-23T04:30:12;94934.81;;;3.90;100.00
7990;BME280;4040;42.848;23.034;2023-03-23T04:36:03;94870.28;;;3.55;100.00
7990;BME280;4040;42.848;23.034;2023-03-23T04:41:54;94935.38;;;3.80;100.00
7990;BME280;4040;42.848;23.034;2023-03-23T04:47:42;94948.44;;;3.85;100.00
7990;BME280;4040;42.848;23.034;2023-03-23T04:53:41;94950.91;;;3.97;100.00
7990;BME280;4040;42.848;23.034;2023-03-23T04:59:30;94963.25;;;4.05;100.00
7990;BME280;4040;42.848;23.034;2023-03-23T05:05:20;94954.72;;;4.44;100.00
7990;BME280;4040;42.848;23.034;2023-03-23T05:15:32;94965.53;;;3.84;100.00
7990;BME280;4040;42.848;23.034;2023-03-23T05:21:21;94968.91;;;3.81;100.00
7990;BME280;4040;42.848;23.034;2023-03-23T05:27:10;94963.59;;;4.78;100.00
7990;BME280;4040;42.848;23.034;2023-03-23T05:33:00;94963.41;;;5.88;100.00
7990;BME280;4040;42.848;23.034;2023-03-23T05:38:50;94975.91;;;6.64;100.00
7990;BME280;4040;42.848;23.034;2023-03-23T05:44:39;94981.00;;;6.80;100.00
7990;BME280;4040;42.848;23.034;2023-03-23T05:50:30;94986.59;;;8.45;100.00
7990;BME280;4040;42.848;23.034;2023-03-23T05:56:18;94977.56;;;10.86;100.00
7990;BME280;4040;42.848;23.034;2023-03-23T06:02:08;94977.59;;;12.96;90.11
7990;BME280;4040;42.848;23.034;2023-03-23T06:07:58;94978.06;;;13.76;74.25
7990;BME280;4040;42.848;23.034;2023-03-23T06:18:09;94983.59;;;14.08;68.85
7990;BME280;4040;42.848;23.034;2023-03-23T06:24:01;94988.06;;;13.79;73.44
7990;BME280;4040;42.848;23.034;2023-03-23T06:29:50;94985.13;;;14.80;71.93
7990;BME280;4040;42.848;23.034;2023-03-23T06:35:39;94976.22;;;18.01;58.39
7990;BME280;4040;42.848;23.034;2023-03-23T06:41:30;94982.44;;;19.24;53.39
7990;BME280;4040;42.848;23.034;2023-03-23T06:47:19;94992.13;;;17.01;57.96
7990;BME280;4040;42.848;23.034;2023-03-23T06:53:08;94976.22;;;18.23;57.77
7990;BME280;4040;42.848;23.034;2023-03-23T06:58:59;94998.19;;;22.22;45.70
7990;BME280;4040;42.848;23.034;2023-03-23T07:04:48;94993.50;;;22.37;44.97
7990;BME280;4040;42.848;23.034;2023-03-23T07:10:37;94996.34;;;23.35;43.61
7990;BME280;4040;42.848;23.034;2023-03-23T07:20:49;94987.47;;;24.00;40.96
7990;BME280;4040;42.848;23.034;2023-03-23T07:26:38;95004.38;;;23.73;40.09
7990;BME280;4040;42.848;23.034;2023-03-23T07:32:27;94976.97;;;25.42;38.51
7990;BME280;4040;42.848;23.034;2023-03-23T07:38:17;94993.47;;;23.24;39.04
7990;BME280;4040;42.848;23.034;2023-03-23T07:44:07;95004.56;;;24.55;39.05
7990;BME280;4040;42.848;23.034;2023-03-23T07:49:56;95009.84;;;21.79;43.49
7990;BME280;4040;42.848;23.034;2023-03-23T07:55:46;94995.78;;;24.76;38.27
7990;BME280;4040;42.848;23.034;2023-03-23T08:01:34;95002.91;;;22.07;40.52
7990;BME280;4040;42.848;23.034;2023-03-23T08:07:24;94997.28;;;20.67;43.67
7990;BME280;4040;42.848;23.034;2023-03-23T08:13:14;95004.13;;;22.73;41.35
7990;BME280;4040;42.848;23.034;2023-03-23T08:23:24;95008.50;;;21.42;43.28
7990;BME280;4040;42.848;23.034;2023-03-23T08:29:15;95001.63;;;23.93;38.86
7990;BME280;4040;42.848;23.034;2023-03-23T08:35:04;95005.75;;;24.03;38.98
7990;BME280;4040;42.848;23.034;2023-03-23T08:40:57;94995.81;;;24.31;36.56
7990;BME280;4040;42.848;23.034;2023-03-23T08:46:48;94997.44;;;23.09;38.78
7990;BME280;4040;42.848;23.034;2023-03-23T08:52:37;95001.41;;;24.93;35.34
7990;BME280;4040;42.848;23.034;2023-03-23T08:58:25;94994.16;;;26.16;34.06
7990;BME280;4040;42.848;23.034;2023-03-23T09:04:16;94998.00;;;23.27;37.73
7990;BME280;4040;42.848;23.034;2023-03-23T09:10:06;94978.66;;;24.16;35.92
7990;BME280;4040;42.848;23.034;2023-03-23T09:15:56;94992.25;;;22.38;38.53
7990;BME280;4040;42.848;23.034;2023-03-23T09:26:08;94987.44;;;26.49;32.91
7990;BME280;4040;42.848;23.034;2023-03-23T09:31:56;94982.31;;;24.84;34.23
7990;BME280;4040;42.848;23.034;2023-03-23T09:37:45;94988.38;;;24.88;35.34
7990;BME280;4040;42.848;23.034;2023-03-23T09:43:52;94977.44;;;23.08;37.45
7990;BME280;4040;42.848;23.034;2023-03-23T09:49:48;94972.47;;;24.01;36.92
7990;BME280;4040;42.848;23.034;2023-03-23T09:55:38;94972.69;;;27.07;32.26
7990;BME280;4040;42.848;23.034;2023-03-23T10:01:32;94973.97;;;19.40;42.99
7990;BME280;4040;42.848;23.034;2023-03-23T10:07:24;94956.34;;;23.14;39.15
7990;BME280;4040;42.848;23.034;2023-03-23T10:13:20;94967.31;;;26.27;33.94
7990;BME280;4040;42.848;23.034;2023-03-23T10:19:20;94965.22;;;23.09;38.57
7990;BME280;4040;42.848;23.034;2023-03-23T10:29:38;94950.84;;;26.87;31.74
7990;BME280;4040;42.848;23.034;2023-03-23T10:35:33;94946.53;;;28.55;29.75
7990;BME280;4040;42.848;23.034;2023-03-23T10:41:24;94959.88;;;24.65;34.37
7990;BME280;4040;42.848;23.034;2023-03-23T10:47:12;94948.28;;;25.71;34.01
7990;BME280;4040;42.848;23.034;2023-03-23T10:53:14;94938.72;;;23.60;36.30
7990;BME280;4040;42.848;23.034;2023-03-23T10:59:15;94932.56;;;23.71;36.23
7990;BME280;4040;42.848;23.034;2023-03-23T11:05:12;94935.84;;;25.92;33.48
7990;BME280;4040;42.848;23.034;2023-03-23T11:11:11;94935.19;;;25.55;34.04
7990;BME280;4040;42.848;23.034;2023-03-23T11:17:01;94931.44;;;22.40;37.77
7990;BME280;4040;42.848;23.034;2023-03-23T11:22:50;94919.22;;;18.77;46.30
7990;BME280;4040;42.848;23.034;2023-03-23T11:28:45;94925.72;;;17.88;48.10
7990;BME280;4040;42.848;23.034;2023-03-23T11:34:40;94915.53;;;16.90;50.34
7990;BME280;4040;42.848;23.034;2023-03-23T11:40:30;94892.69;;;17.22;50.84
7990;BME280;4040;42.848;23.034;2023-03-23T11:46:32;94900.38;;;17.02;50.91
7990;BME280;4040;42.848;23.034;2023-03-23T11:52:26;94902.75;;;17.00;52.10
7990;BME280;4040;42.848;23.034;2023-03-23T11:58:19;94900.59;;;17.07;52.15
7990;BME280;4040;42.848;23.034;2023-03-23T12:04:40;94898.56;;;17.20;52.02
7990;BME280;4040;42.848;23.034;2023-03-23T12:10:32;94893.94;;;17.08;53.54
7990;BME280;4040;42.848;23.034;2023-03-23T12:16:30;94881.22;;;17.39;51.50
7990;BME280;4040;42.848;23.034;2023-03-23T12:22:34;94874.59;;;16.94;53.29
7990;BME280;4040;42.848;23.034;2023-03-23T12:33:09;94866.28;;;17.44;51.35
7990;BME280;4040;42.848;23.034;2023-03-23T12:39:34;94862.44;;;16.73;53.68
7990;BME280;4040;42.848;23.034;2023-03-23T12:45:48;94863.56;;;16.63;53.64
7990;BME280;4040;42.848;23.034;2023-03-23T12:51:43;94853.06;;;16.87;54.28
7990;BME280;4040;42.848;23.034;2023-03-23T12:57:36;94843.28;;;16.89;54.96
7990;BME280;4040;42.848;23.034;2023-03-23T13:03:31;94839.44;;;16.65;53.69
7990;BME280;4040;42.848;23.034;2023-03-23T13:09:27;94838.59;;;17.45;55.33
7990;BME280;4040;42.848;23.034;2023-03-23T13:15:27;94834.03;;;17.42;52.92
7990;BME280;4040;42.848;23.034;2023-03-23T13:21:23;94830.25;;;17.06;52.96
7990;BME280;4040;42.848;23.034;2023-03-23T13:27:13;94836.41;;;16.97;53.53
7990;BME280;4040;42.848;23.034;2023-03-23T13:33:06;94829.97;;;16.70;53.86
7990;BME280;4040;42.848;23.034;2023-03-23T13:39:02;94820.69;;;16.80;53.31
7990;BME280;4040;42.848;23.034;2023-03-23T13:45:05;94818.41;;;16.66;52.34
7990;BME280;4040;42.848;23.034;2023-03-23T13:51:00;94806.44;;;16.76;53.53
7990;BME280;4040;42.848;23.034;2023-03-23T13:56:54;94808.50;;;17.27;53.17
7990;BME280;4040;42.848;23.034;2023-03-23T14:02:45;94803.66;;;17.10;52.66
7990;BME280;4040;42.848;23.034;2023-03-23T14:08:41;94797.72;;;17.02;51.38
7990;BME280;4040;42.848;23.034;2023-03-23T14:14:32;94803.50;;;16.70;53.07
7990;BME280;4040;42.848;23.034;2023-03-23T14:20:26;94797.84;;;16.77;52.91
7990;BME280;4040;42.848;23.034;2023-03-23T14:26:19;94791.34;;;16.96;53.36
7990;BME280;4040;42.848;23.034;2023-03-23T14:32:12;94777.34;;;16.85;50.69
7990;BME280;4040;42.848;23.034;2023-03-23T14:38:03;94796.72;;;16.87;51.54
7990;BME280;4040;42.848;23.034;2023-03-23T14:43:54;94790.75;;;16.80;52.55
7990;BME280;4040;42.848;23.034;2023-03-23T14:49:43;94793.94;;;16.66;51.53
7990;BME280;4040;42.848;23.034;2023-03-23T14:55:31;94793.13;;;16.31;51.34
7990;BME280;4040;42.848;23.034;2023-03-23T15:01:25;94783.34;;;16.46;51.80
7990;BME280;4040;42.848;23.034;2023-03-23T15:07:15;94769.19;;;16.51;51.52
7990;BME280;4040;42.848;23.034;2023-03-23T15:13:05;94781.97;;;16.63;50.48
7990;BME280;4040;42.848;23.034;2023-03-23T15:18:57;94774.78;;;16.48;51.01
7990;BME280;4040;42.848;23.034;2023-03-23T15:24:47;94780.94;;;16.48;50.92
7990;BME280;4040;42.848;23.034;2023-03-23T15:35:04;94785.22;;;16.24;52.60
7990;BME280;4040;42.848;23.034;2023-03-23T15:40:59;94783.81;;;16.07;52.68
7990;BME280;4040;42.848;23.034;2023-03-23T15:46:49;94781.78;;;15.99;52.85
7990;BME280;4040;42.848;23.034;2023-03-23T15:52:40;94796.19;;;16.08;53.27
7990;BME280;4040;42.848;23.034;2023-03-23T15:58:29;94794.25;;;15.84;53.90
7990;BME280;4040;42.848;23.034;2023-03-23T16:04:19;94797.75;;;15.59;55.78
7990;BME280;4040;42.848;23.034;2023-03-23T16:10:16;94780.75;;;15.31;56.59
7990;BME280;4040;42.848;23.034;2023-03-23T16:16:09;94811.31;;;15.19;56.97
7990;BME280;4040;42.848;23.034;2023-03-23T16:22:01;94816.44;;;15.01;59.61
7990;BME280;4040;42.848;23.034;2023-03-23T16:27:51;94814.47;;;14.73;63.71
7990;BME280;4040;42.848;23.034;2023-03-23T16:38:02;94802.59;;;14.22;72.25
7990;BME280;4040;42.848;23.034;2023-03-23T16:43:52;94823.16;;;14.04;81.14
7990;BME280;4040;42.848;23.034;2023-03-23T16:49:41;94832.75;;;13.73;89.92
7990;BME280;4040;42.848;23.034;2023-03-23T16:55:30;94801.53;;;13.33;97.80
7990;BME280;4040;42.848;23.034;2023-03-23T17:01:21;94801.53;;;13.13;100.00
7990;BME280;4040;42.848;23.034;2023-03-23T17:07:09;94821.88;;;13.02;100.00
7990;BME280;4040;42.848;23.034;2023-03-23T17:12:58;94828.78;;;13.03;100.00
7990;BME280;4040;42.848;23.034;2023-03-23T17:18:48;94814.75;;;12.69;100.00
7990;BME280;4040;42.848;23.034;2023-03-23T17:24:37;94850.66;;;12.89;100.00
7990;BME280;4040;42.848;23.034;2023-03-23T17:30:26;94863.66;;;12.74;100.00
7990;BME280;4040;42.848;23.034;2023-03-23T17:40:39;94877.34;;;12.41;100.00
7990;BME280;4040;42.848;23.034;2023-03-23T17:46:28;94884.91;;;12.27;100.00
7990;BME280;4040;42.848;23.034;2023-03-23T17:52:17;94882.44;;;12.13;100.00
7990;BME280;4040;42.848;23.034;2023-03-23T17:58:07;94894.38;;;12.15;100.00
7990;BME280;4040;42.848;23.034;2023-03-23T18:03:56;94895.72;;;12.00;100.00
7990;BME280;4040;42.848;23.034;2023-03-23T18:09:44;94913.63;;;11.91;100.00
7990;BME280;4040;42.848;23.034;2023-03-23T18:15:35;94916.63;;;11.66;100.00
7990;BME280;4040;42.848;23.034;2023-03-23T18:21:24;94897.16;;;11.18;100.00
7990;BME280;4040;42.848;23.034;2023-03-23T18:27:13;94922.63;;;11.10;100.00
7990;BME280;4040;42.848;23.034;2023-03-23T18:33:04;94943.94;;;10.57;100.00
7990;BME280;4040;42.848;23.034;2023-03-23T18:43:15;94935.88;;;9.99;100.00
7990;BME280;4040;42.848;23.034;2023-03-23T18:49:05;94950.53;;;9.92;100.00
7990;BME280;4040;42.848;23.034;2023-03-23T18:54:54;94949.91;;;9.60;100.00
7990;BME280;4040;42.848;23.034;2023-03-23T19:00:43;94964.53;;;9.52;100.00
7990;BME280;4040;42.848;23.034;2023-03-23T19:06:33;94967.34;;;9.17;100.00
7990;BME280;4040;42.848;23.034;2023-03-23T19:12:22;94980.06;;;8.78;100.00
7990;BME280;4040;42.848;23.034;2023-03-23T19:18:11;94990.41;;;8.65;100.00
7990;BME280;4040;42.848;23.034;2023-03-23T19:24:01;94996.94;;;8.68;100.00
7990;BME280;4040;42.848;23.034;2023-03-23T19:29:51;95005.38;;;8.49;100.00
7990;BME280;4040;42.848;23.034;2023-03-23T19:35:39;94991.94;;;8.28;100.00
7990;BME280;4040;42.848;23.034;2023-03-23T19:45:51;95006.84;;;8.15;100.00
7990;BME280;4040;42.848;23.034;2023-03-23T19:51:40;95023.38;;;8.24;100.00
7990;BME280;4040;42.848;23.034;2023-03-23T19:57:29;95019.09;;;8.16;100.00
7990;BME280;4040;42.848;23.034;2023-03-23T20:03:20;94984.97;;;8.02;100.00
7990;BME280;4040;42.848;23.034;2023-03-23T20:09:08;95032.13;;;8.10;100.00
7990;BME280;4040;42.848;23.034;2023-03-23T20:14:57;95026.69;;;7.86;100.00
7990;BME280;4040;42.848;23.034;2023-03-23T20:20:48;94961.38;;;7.26;100.00
7990;BME280;4040;42.848;23.034;2023-03-23T20:26:38;95051.88;;;7.64;100.00
7990;BME280;4040;42.848;23.034;2023-03-23T20:32:29;95046.44;;;7.46;100.00
7990;BME280;4040;42.848;23.034;2023-03-23T20:38:20;95041.03;;;7.36;100.00
7990;BME280;4040;42.848;23.034;2023-03-23T20:48:33;95000.50;;;6.80;100.00
7990;BME280;4040;42.848;23.034;2023-03-23T20:54:25;95026.19;;;6.88;100.00
7990;BME280;4040;42.848;23.034;2023-03-23T21:00:14;95041.84;;;6.86;100.00
7990;BME280;4040;42.848;23.034;2023-03-23T21:06:05;95025.16;;;6.56;100.00
7990;BME280;4040;42.848;23.034;2023-03-23T21:11:55;95016.16;;;6.31;100.00
7990;BME280;4040;42.848;23.034;2023-03-23T21:17:45;95013.69;;;6.12;100.00
7990;BME280;4040;42.848;23.034;2023-03-23T21:23:34;95040.09;;;6.17;100.00
7990;BME280;4040;42.848;23.034;2023-03-23T21:29:26;95040.16;;;6.24;100.00
7990;BME280;4040;42.848;23.034;2023-03-23T21:35:15;95018.66;;;6.10;100.00
7990;BME280;4040;42.848;23.034;2023-03-23T21:41:06;95037.88;;;6.26;100.00
7990;BME280;4040;42.848;23.034;2023-03-23T21:51:23;95034.47;;;6.29;100.00
7990;BME280;4040;42.848;23.034;2023-03-23T21:57:12;95040.25;;;6.31;100.00
7990;BME280;4040;42.848;23.034;2023-03-23T22:03:01;95038.00;;;6.40;100.00
7990;BME280;4040;42.848;23.034;2023-03-23T22:08:52;95047.28;;;6.50;100.00
7990;BME280;4040;42.848;23.034;2023-03-23T22:14:41;95047.56;;;6.41;100.00
7990;BME280;4040;42.848;23.034;2023-03-23T22:20:31;95049.44;;;6.37;100.00
7990;BME280;4040;42.848;23.034;2023-03-23T22:26:22;95051.00;;;6.38;100.00
7990;BME280;4040;42.848;23.034;2023-03-23T22:32:11;95047.84;;;6.29;100.00
7990;BME280;4040;42.848;23.034;2023-03-23T22:38:00;95056.28;;;6.31;100.00
7990;BME280;4040;42.848;23.034;2023-03-23T22:43:51;95036.63;;;6.13;100.00
7990;BME280;4040;42.848;23.034;2023-03-23T22:54:01;95055.16;;;5.99;100.00
7990;BME280;4040;42.848;23.034;2023-03-23T22:59:51;95064.97;;;5.88;100.00
7990;BME280;4040;42.848;23.034;2023-03-23T23:08:28;95050.03;;;5.54;100.00
7990;BME280;4040;42.848;23.034;2023-03-23T23:14:18;95043.22;;;5.57;100.00
7990;BME280;4040;42.848;23.034;2023-03-23T23:20:08;95050.88;;;5.58;100.00
7990;BME280;4040;42.848;23.034;2023-03-23T23:26:00;95040.88;;;5.55;100.00
7990;BME280;4040;42.848;23.034;2023-03-23T23:31:49;95037.75;;;5.50;100.00
7990;BME280;4040;42.848;23.034;2023-03-23T23:37:38;95040.50;;;5.53;100.00
7990;BME280;4040;42.848;23.034;2023-03-23T23:43:28;95048.56;;;5.57;100.00
7990;BME280;4040;42.848;23.034;2023-03-23T23:49:17;95045.38;;;5.48;100.00
7990;BME280;4040;42.848;23.034;2023-03-23T23:55:10;95044.69;;;5.54;100.00
